Time;durP1;ratioP1;P1;durP2;ratioP2;P2;SDS_P1;SDS_P2;PMS_P1;PMS_P2;Temp;Humidity;BMP_temperature;BMP_pressure;BME280_temperature;BME280_humidity;BME280_pressure;Samples;Min_cycle;Max_cycle;Signal;HPM_P1;HPM_P2
2023/05/29 00:00:53;;;;;;;;;;;9.70;99.90;;;;;;4913578;29;19934;-78
2023/05/29 00:03:19;;;;;;;;;;;9.70;99.90;;;;;;4928336;29;19927;-78
2023/05/29 00:05:44;;;;;;;;;;;9.70;99.90;;;;;;4928465;29;19966;-78
2023/05/29 00:08:10;;;;;;;;;;;9.60;99.90;;;;;;4905900;29;19927;-79
2023/05/29 00:10:37;;;;;;;;;;;9.60;99.90;;;;;;4893544;29;19974;-78
2023/05/29 00:13:02;;;;;;;;;;;9.60;99.90;;;;;;4908999;29;19983;-78
2023/05/29 00:15:30;;;;;;;;;;;9.60;99.90;;;;;;4919784;29;19927;-78
2023/05/29 00:17:55;;;;;;;;;;;9.60;99.90;;;;;;4917976;29;19990;-79
2023/05/29 00:20:21;;;;;;;;;;;9.60;99.90;;;;;;4912323;29;19952;-78
2023/05/29 00:22:47;;;;;;;;;;;9.50;99.90;;;;;;4920867;29;19911;-78
2023/05/29 00:25:12;;;;;;;;;;;9.50;99.90;;;;;;4922121;29;19931;-79
2023/05/29 00:27:38;;;;;;;;;;;9.50;99.90;;;;;;4914137;29;19951;-79
2023/05/29 00:30:03;;;;;;;;;;;9.40;99.90;;;;;;4916859;29;19939;-79
2023/05/29 00:32:29;;;;;;;;;;;9.40;99.90;;;;;;4884087;29;19928;-79
2023/05/29 00:34:55;;;;;;;;;;;9.40;99.90;;;;;;4909846;29;19934;-79
2023/05/29 00:37:21;;;;;;;;;;;9.40;99.90;;;;;;4914890;29;19928;-79
2023/05/29 00:39:47;;;;;;;;;;;9.40;99.90;;;;;;4919152;29;19952;-79
2023/05/29 00:42:13;;;;;;;;;;;9.40;99.90;;;;;;4921149;29;19931;-79
2023/05/29 00:44:38;;;;;;;;;;;9.40;99.90;;;;;;4919949;29;19928;-79
2023/05/29 00:47:04;;;;;;;;;;;9.30;99.90;;;;;;4909059;29;19935;-79
2023/05/29 00:49:29;;;;;;;;;;;9.30;99.90;;;;;;4899197;29;20026;-79
2023/05/29 00:51:55;;;;;;;;;;;9.30;99.90;;;;;;4905264;29;19934;-78
2023/05/29 00:54:27;;;;;;;;;;;9.30;99.90;;;;;;4897922;29;20299;-79
2023/05/29 00:56:52;;;;;;;;;;;9.30;99.90;;;;;;4888953;29;20063;-79
2023/05/29 00:59:21;;;;;;;;;;;9.20;99.90;;;;;;4894050;29;19927;-78
2023/05/29 01:01:47;;;;;;;;;;;9.20;99.90;;;;;;4894354;29;20011;-78
2023/05/29 01:04:14;;;;;;;;;;;9.30;99.90;;;;;;4895028;29;19928;-79
2023/05/29 01:06:41;;;;;;;;;;;9.30;99.90;;;;;;4913034;29;19928;-79
2023/05/29 01:09:06;;;;;;;;;;;9.20;99.90;;;;;;4925340;29;19986;-79
2023/05/29 01:11:40;;;;;;;;;;;9.20;99.90;;;;;;4933921;29;19959;-79
2023/05/29 01:14:09;;;;;;;;;;;9.20;99.90;;;;;;4933303;29;19955;-79
2023/05/29 01:16:48;;;;;;;;;;;9.20;99.90;;;;;;4931356;29;19927;-79
2023/05/29 01:19:46;;;;;;;;;;;9.20;99.90;;;;;;4915851;29;20410;-79
2023/05/29 01:22:14;;;;;;;;;;;9.20;99.90;;;;;;4926232;29;19982;-78
2023/05/29 01:24:50;;;;;;;;;;;9.20;99.90;;;;;;4936572;29;19950;-79
2023/05/29 01:27:17;;;;;;;;;;;9.30;99.90;;;;;;4928403;29;20408;-79
2023/05/29 01:29:43;;;;;;;;;;;9.30;99.90;;;;;;4916428;29;19927;-79
2023/05/29 01:32:09;;;;;;;;;;;9.30;99.90;;;;;;4927463;29;19927;-79
2023/05/29 01:34:34;;;;;;;;;;;9.40;99.90;;;;;;4929077;29;19927;-79
2023/05/29 01:37:00;;;;;;;;;;;9.40;99.90;;;;;;4918004;29;19927;-79
2023/05/29 01:39:26;;;;;;;;;;;9.50;99.90;;;;;;4927396;29;19958;-79
2023/05/29 01:41:52;;;;;;;;;;;9.50;99.90;;;;;;4930369;29;19934;-79
2023/05/29 01:44:17;;;;;;;;;;;9.40;99.90;;;;;;4930333;29;19926;-79
2023/05/29 01:46:45;;;;;;;;;;;9.40;99.90;;;;;;4929615;29;19934;-79
2023/05/29 01:49:11;;;;;;;;;;;9.40;99.90;;;;;;4912619;29;19927;-79
2023/05/29 01:51:37;;;;;;;;;;;9.50;99.90;;;;;;4914144;29;19931;-79
2023/05/29 01:54:03;;;;;;;;;;;9.40;99.90;;;;;;4919783;29;20310;-79
2023/05/29 01:56:30;;;;;;;;;;;9.40;99.90;;;;;;4904980;29;19928;-79
2023/05/29 01:58:56;;;;;;;;;;;9.40;99.90;;;;;;4924541;29;19982;-79
2023/05/29 02:01:22;;;;;;;;;;;9.40;99.90;;;;;;4927857;29;20022;-79
2023/05/29 02:03:47;;;;;;;;;;;9.40;99.90;;;;;;4925571;29;19927;-79
2023/05/29 02:06:13;;;;;;;;;;;9.30;99.90;;;;;;4913082;29;20401;-79
2023/05/29 02:08:38;;;;;;;;;;;9.30;99.90;;;;;;4925157;29;20017;-79
2023/05/29 02:11:04;;;;;;;;;;;9.40;99.90;;;;;;4921261;29;19933;-79
2023/05/29 02:13:29;;;;;;;;;;;9.30;99.90;;;;;;4915361;29;19975;-79
2023/05/29 02:15:55;;;;;;;;;;;9.40;99.90;;;;;;4922097;29;19927;-80
2023/05/29 02:18:20;;;;;;;;;;;9.30;99.90;;;;;;4928742;29;19927;-79
2023/05/29 02:20:46;;;;;;;;;;;9.60;99.90;;;;;;4927846;29;19931;-79
2023/05/29 02:23:12;;;;;;;;;;;9.30;99.90;;;;;;4924806;29;20289;-79
2023/05/29 02:25:38;;;;;;;;;;;9.30;99.90;;;;;;4919270;29;19966;-79
2023/05/29 02:28:04;;;;;;;;;;;9.20;99.90;;;;;;4922418;29;19927;-80
2023/05/29 02:30:30;;;;;;;;;;;9.20;99.90;;;;;;4920835;29;19978;-79
2023/05/29 02:32:55;;;;;;;;;;;9.30;99.90;;;;;;4921919;29;19931;-79
2023/05/29 02:35:22;;;;;;;;;;;9.20;99.90;;;;;;4922214;29;20002;-78
2023/05/29 02:37:51;;;;;;;;;;;9.20;99.90;;;;;;4925894;29;20325;-79
2023/05/29 02:40:17;;;;;;;;;;;9.20;99.90;;;;;;4931327;29;20354;-80
2023/05/29 02:42:43;;;;;;;;;;;9.20;99.90;;;;;;4923177;29;19982;-80
2023/05/29 02:45:08;;;;;;;;;;;9.80;99.90;;;;;;4923554;29;19927;-79
2023/05/29 02:47:34;;;;;;;;;;;9.30;99.90;;;;;;4924413;29;19935;-79
2023/05/29 02:50:00;;;;;;;;;;;9.30;99.90;;;;;;4918335;29;19951;-79
2023/05/29 02:52:27;;;;;;;;;;;9.30;99.90;;;;;;4925061;29;19927;-79
2023/05/29 02:54:54;;;;;;;;;;;9.30;99.90;;;;;;4920418;29;19934;-79
2023/05/29 02:57:20;;;;;;;;;;;9.30;99.90;;;;;;4944700;29;19927;-79
2023/05/29 02:59:46;;;;;;;;;;;9.30;99.90;;;;;;4939006;29;19951;-81
2023/05/29 03:02:11;;;;;;;;;;;9.30;99.90;;;;;;4934114;29;19931;-79
2023/05/29 03:04:37;;;;;;;;;;;9.40;99.90;;;;;;4933233;29;19935;-79
2023/05/29 03:07:03;;;;;;;;;;;9.40;99.90;;;;;;4911867;29;19983;-79
2023/05/29 03:09:28;;;;;;;;;;;9.40;99.90;;;;;;4922582;29;19928;-79
2023/05/29 03:11:54;;;;;;;;;;;9.50;99.90;;;;;;4896920;29;19932;-79
2023/05/29 03:14:21;;;;;;;;;;;9.50;99.90;;;;;;4922027;29;19934;-79
2023/05/29 03:16:47;;;;;;;;;;;9.50;99.90;;;;;;4915060;29;20045;-79
2023/05/29 03:19:12;;;;;;;;;;;9.50;99.90;;;;;;4928616;29;19934;-79
2023/05/29 03:21:38;;;;;;;;;;;9.50;99.90;;;;;;4913714;29;20006;-79
2023/05/29 03:24:04;;;;;;;;;;;9.60;99.90;;;;;;4918986;29;19927;-79
2023/05/29 03:26:29;;;;;;;;;;;9.60;99.90;;;;;;4915487;29;20591;-79
2023/05/29 03:28:55;;;;;;;;;;;9.80;99.90;;;;;;4932199;29;20003;-79
2023/05/29 03:31:21;;;;;;;;;;;9.60;99.90;;;;;;4934726;29;19927;-79
2023/05/29 03:33:47;;;;;;;;;;;9.60;99.90;;;;;;4930002;29;19930;-79
2023/05/29 03:36:13;;;;;;;;;;;9.60;99.90;;;;;;4913557;29;20271;-79
2023/05/29 03:38:38;;;;;;;;;;;9.70;99.90;;;;;;4929592;29;20058;-78
2023/05/29 03:41:04;;;;;;;;;;;9.70;99.90;;;;;;4940633;29;19915;-79
2023/05/29 03:43:29;;;;;;;;;;;9.80;99.90;;;;;;4935950;29;19958;-78
2023/05/29 03:45:55;;;;;;;;;;;9.80;99.90;;;;;;4930849;29;19998;-79
2023/05/29 03:48:20;;;;;;;;;;;9.80;99.90;;;;;;4913412;29;19927;-79
2023/05/29 03:50:46;;;;;;;;;;;9.90;99.90;;;;;;4929196;29;20006;-78
2023/05/29 03:53:12;;;;;;;;;;;10.00;99.90;;;;;;4928120;29;20004;-79
2023/05/29 03:55:37;;;;;;;;;;;10.10;99.90;;;;;;4909667;29;19927;-79
2023/05/29 03:58:03;;;;;;;;;;;9.90;99.90;;;;;;4919228;29;19927;-78
2023/05/29 04:00:29;;;;;;;;;;;9.90;99.90;;;;;;4919838;29;19924;-80
2023/05/29 04:02:55;;;;;;;;;;;10.00;99.90;;;;;;4921032;29;19970;-78
2023/05/29 04:05:20;;;;;;;;;;;10.00;99.90;;;;;;4915506;29;19938;-79
2023/05/29 04:07:45;;;;;;;;;;;10.00;99.90;;;;;;4923119;29;19937;-78
2023/05/29 04:10:11;;;;;;;;;;;10.00;99.90;;;;;;4924504;29;19971;-79
2023/05/29 04:12:37;;;;;;;;;;;10.10;99.90;;;;;;4903986;29;20450;-77
2023/05/29 04:15:02;;;;;;;;;;;10.10;99.90;;;;;;4915621;29;19990;-78
2023/05/29 04:17:28;;;;;;;;;;;10.10;99.90;;;;;;4923086;29;19952;-77
2023/05/29 04:19:54;;;;;;;;;;;10.10;99.90;;;;;;4908921;29;19927;-78
2023/05/29 04:22:20;;;;;;;;;;;10.20;99.90;;;;;;4917287;29;19963;-78
2023/05/29 04:24:46;;;;;;;;;;;10.20;99.90;;;;;;4904286;29;19928;-78
2023/05/29 04:27:12;;;;;;;;;;;10.20;99.90;;;;;;4907011;29;19928;-78
2023/05/29 04:29:44;;;;;;;;;;;10.20;99.90;;;;;;4921946;29;19927;-79
2023/05/29 04:32:11;;;;;;;;;;;10.30;99.90;;;;;;4921598;29;19931;-78
2023/05/29 04:34:38;;;;;;;;;;;10.20;99.90;;;;;;4907054;29;19931;-78
2023/05/29 04:37:04;;;;;;;;;;;10.20;99.90;;;;;;4904450;29;19928;-78
2023/05/29 04:39:30;;;;;;;;;;;10.20;99.90;;;;;;4904003;29;19927;-78
2023/05/29 04:42:00;;;;;;;;;;;10.20;99.90;;;;;;4887593;29;19927;-78
2023/05/29 04:44:26;;;;;;;;;;;10.20;99.90;;;;;;4921819;29;19974;-79
2023/05/29 04:46:52;;;;;;;;;;;10.20;99.90;;;;;;4908601;29;20025;-79
2023/05/29 04:49:18;;;;;;;;;;;10.20;99.90;;;;;;4927229;29;19927;-79
2023/05/29 04:51:44;;;;;;;;;;;10.20;99.90;;;;;;4927780;29;20373;-78
2023/05/29 04:54:10;;;;;;;;;;;10.30;99.90;;;;;;4902608;29;19927;-80
2023/05/29 04:56:36;;;;;;;;;;;10.40;99.90;;;;;;4908446;29;19959;-79
2023/05/29 04:59:02;;;;;;;;;;;10.30;99.90;;;;;;4927386;29;19934;-79
2023/05/29 05:01:28;;;;;;;;;;;10.30;99.90;;;;;;4923536;29;19927;-79
2023/05/29 05:03:55;;;;;;;;;;;10.40;99.90;;;;;;4911333;29;19915;-79
2023/05/29 05:06:21;;;;;;;;;;;10.40;99.90;;;;;;4919747;29;19945;-79
2023/05/29 05:08:47;;;;;;;;;;;10.40;99.90;;;;;;4919665;29;19955;-78
2023/05/29 05:11:13;;;;;;;;;;;10.50;99.90;;;;;;4919448;29;19927;-76
2023/05/29 05:13:39;;;;;;;;;;;10.50;99.90;;;;;;4935883;29;19973;-79
2023/05/29 05:16:05;;;;;;;;;;;10.50;99.90;;;;;;4925645;29;19928;-77
2023/05/29 05:18:30;;;;;;;;;;;10.50;99.90;;;;;;4919924;29;19928;-78
2023/05/29 05:20:55;;;;;;;;;;;10.60;99.90;;;;;;4914600;29;19931;-78
2023/05/29 05:23:21;;;;;;;;;;;10.80;99.90;;;;;;4919641;29;20317;-77
2023/05/29 05:25:46;;;;;;;;;;;10.90;99.90;;;;;;4920888;29;19987;-77
2023/05/29 05:28:12;;;;;;;;;;;10.90;99.90;;;;;;4901651;29;19928;-77
2023/05/29 05:30:38;;;;;;;;;;;11.00;99.90;;;;;;4925098;29;20005;-78
2023/05/29 05:33:03;;;;;;;;;;;11.10;99.90;;;;;;4924543;29;19927;-77
2023/05/29 05:35:29;;;;;;;;;;;11.20;99.90;;;;;;4920237;29;19928;-79
2023/05/29 05:37:57;;;;;;;;;;;11.30;99.90;;;;;;4928435;29;19927;-80
2023/05/29 05:40:23;;;;;;;;;;;11.40;99.90;;;;;;4907744;29;20085;-78
2023/05/29 05:42:49;;;;;;;;;;;11.40;99.90;;;;;;4908053;29;20349;-78
2023/05/29 05:45:14;;;;;;;;;;;11.40;99.90;;;;;;4908464;29;19990;-79
2023/05/29 05:47:40;;;;;;;;;;;11.50;99.90;;;;;;4906292;29;19939;-77
2023/05/29 05:50:06;;;;;;;;;;;11.80;99.90;;;;;;4923254;29;19934;-78
2023/05/29 05:52:33;;;;;;;;;;;11.70;99.90;;;;;;4910685;29;20437;-77
2023/05/29 05:54:59;;;;;;;;;;;11.80;99.90;;;;;;4924971;29;19927;-79
2023/05/29 05:57:25;;;;;;;;;;;11.80;99.90;;;;;;4921248;29;20370;-78
2023/05/29 05:59:50;;;;;;;;;;;12.30;99.90;;;;;;4918851;29;19934;-78
2023/05/29 06:02:16;;;;;;;;;;;11.80;99.90;;;;;;4924576;29;19931;-78
2023/05/29 06:04:41;;;;;;;;;;;11.90;99.90;;;;;;4924827;29;19937;-80
2023/05/29 06:07:07;;;;;;;;;;;12.10;99.90;;;;;;4924733;29;19927;-77
2023/05/29 06:09:33;;;;;;;;;;;12.20;99.90;;;;;;4922571;29;19923;-77
2023/05/29 06:11:58;;;;;;;;;;;12.30;99.90;;;;;;4908275;29;19982;-78
2023/05/29 06:14:27;;;;;;;;;;;12.50;99.90;;;;;;4924907;29;19965;-77
2023/05/29 06:16:56;;;;;;;;;;;12.30;99.90;;;;;;4920757;29;19935;-80
2023/05/29 06:19:21;;;;;;;;;;;12.30;99.90;;;;;;4926311;29;19927;-78
2023/05/29 06:21:47;;;;;;;;;;;12.20;99.90;;;;;;4921810;29;19983;-78
2023/05/29 06:24:12;;;;;;;;;;;12.10;99.90;;;;;;4923514;29;19927;-78
2023/05/29 06:26:38;;;;;;;;;;;12.00;99.90;;;;;;4923392;29;19987;-77
2023/05/29 06:29:06;;;;;;;;;;;12.00;99.90;;;;;;4922816;29;19928;-78
2023/05/29 06:31:32;;;;;;;;;;;11.90;99.90;;;;;;4912471;29;19966;-77
2023/05/29 06:33:58;;;;;;;;;;;12.00;99.90;;;;;;4895360;29;20417;-77
2023/05/29 06:36:24;;;;;;;;;;;12.10;99.90;;;;;;4914119;29;19970;-78
2023/05/29 06:38:49;;;;;;;;;;;12.10;99.90;;;;;;4918852;29;19927;-78
2023/05/29 06:41:16;;;;;;;;;;;12.10;99.90;;;;;;4926624;29;20022;-78
2023/05/29 06:43:41;;;;;;;;;;;12.10;99.90;;;;;;4903544;29;19927;-78
2023/05/29 06:46:07;;;;;;;;;;;12.10;99.90;;;;;;4925316;29;19986;-78
2023/05/29 06:48:35;;;;;;;;;;;12.20;99.90;;;;;;4925519;29;19927;-78
2023/05/29 06:51:03;;;;;;;;;;;12.60;99.90;;;;;;4913714;29;20068;-78
2023/05/29 06:53:28;;;;;;;;;;;12.50;99.90;;;;;;4906326;29;19928;-78
2023/05/29 06:55:54;;;;;;;;;;;12.50;99.90;;;;;;4922311;29;19934;-78
2023/05/29 06:58:19;;;;;;;;;;;12.70;99.90;;;;;;4912717;29;19927;-77
2023/05/29 07:00:45;;;;;;;;;;;12.60;99.90;;;;;;4926897;29;19927;-78
2023/05/29 07:03:10;;;;;;;;;;;12.80;99.90;;;;;;4924771;29;19938;-79
2023/05/29 07:05:36;;;;;;;;;;;12.60;99.90;;;;;;4921868;29;19966;-77
2023/05/29 07:08:02;;;;;;;;;;;12.60;99.90;;;;;;4920875;29;19966;-77
2023/05/29 07:10:27;;;;;;;;;;;12.60;99.90;;;;;;4919953;29;19934;-77
2023/05/29 07:12:53;;;;;;;;;;;12.50;99.90;;;;;;4920621;29;19927;-78
2023/05/29 07:15:18;;;;;;;;;;;12.40;99.90;;;;;;4919344;29;19934;-79
2023/05/29 07:17:44;;;;;;;;;;;12.40;99.90;;;;;;4920797;29;19927;-77
2023/05/29 07:20:10;;;;;;;;;;;12.50;99.90;;;;;;4901720;29;19935;-77
2023/05/29 07:22:36;;;;;;;;;;;12.40;99.90;;;;;;4917865;29;19931;-78
2023/05/29 07:25:01;;;;;;;;;;;12.50;99.90;;;;;;4920526;29;19934;-77
2023/05/29 07:27:27;;;;;;;;;;;12.70;99.90;;;;;;4919218;29;19955;-77
2023/05/29 07:29:53;;;;;;;;;;;12.80;99.90;;;;;;4904503;29;19927;-78
2023/05/29 07:32:19;;;;;;;;;;;12.90;99.90;;;;;;4933356;29;19934;-77
2023/05/29 07:34:45;;;;;;;;;;;12.80;99.90;;;;;;4914068;29;20187;-77
2023/05/29 07:37:10;;;;;;;;;;;12.60;99.90;;;;;;4919940;29;20042;-78
2023/05/29 07:39:36;;;;;;;;;;;12.60;99.90;;;;;;4921295;29;19923;-80
2023/05/29 07:42:02;;;;;;;;;;;12.70;99.90;;;;;;4926608;29;20313;-77
2023/05/29 07:44:27;;;;;;;;;;;12.90;99.90;;;;;;4922024;29;20292;-77
2023/05/29 07:46:53;;;;;;;;;;;13.10;99.90;;;;;;4923615;29;20468;-78
2023/05/29 07:49:21;;;;;;;;;;;13.20;99.90;;;;;;4922249;29;20017;-78
2023/05/29 07:51:47;;;;;;;;;;;13.10;99.90;;;;;;4921965;29;19931;-77
2023/05/29 07:54:12;;;;;;;;;;;13.10;99.90;;;;;;4920197;29;19954;-77
2023/05/29 07:56:40;;;;;;;;;;;13.20;99.90;;;;;;4922443;29;19951;-78
2023/05/29 07:59:06;;;;;;;;;;;13.10;99.90;;;;;;4904077;29;19927;-78
2023/05/29 08:01:32;;;;;;;;;;;13.10;99.90;;;;;;4904965;29;20406;-77
2023/05/29 08:03:57;;;;;;;;;;;13.20;99.90;;;;;;4903407;29;19933;-77
2023/05/29 08:06:23;;;;;;;;;;;13.30;99.90;;;;;;4924924;29;20025;-78
2023/05/29 08:08:49;;;;;;;;;;;13.20;99.90;;;;;;4915717;29;19939;-77
2023/05/29 08:11:14;;;;;;;;;;;13.30;99.90;;;;;;4914939;29;19928;-77
2023/05/29 08:13:40;;;;;;;;;;;13.20;99.90;;;;;;4907609;29;19927;-78
2023/05/29 08:16:06;;;;;;;;;;;13.40;99.90;;;;;;4931244;29;20030;-77
2023/05/29 08:18:32;;;;;;;;;;;13.40;99.90;;;;;;4931191;29;19938;-78
2023/05/29 08:20:58;;;;;;;;;;;13.40;99.90;;;;;;4916258;29;19928;-80
2023/05/29 08:23:23;;;;;;;;;;;13.50;99.90;;;;;;4935655;29;19931;-79
2023/05/29 08:25:49;;;;;;;;;;;13.50;99.90;;;;;;4932447;29;19983;-78
2023/05/29 08:28:15;;;;;;;;;;;14.00;99.90;;;;;;4935297;29;19927;-78
2023/05/29 08:30:41;;;;;;;;;;;13.50;99.90;;;;;;4936309;29;19912;-79
2023/05/29 08:33:06;;;;;;;;;;;13.50;99.90;;;;;;4918241;29;19931;-78
2023/05/29 08:35:32;;;;;;;;;;;13.40;99.90;;;;;;4913108;29;19927;-78
2023/05/29 08:37:58;;;;;;;;;;;13.50;99.90;;;;;;4937794;29;19927;-78
2023/05/29 08:40:24;;;;;;;;;;;13.50;99.90;;;;;;4934535;29;19951;-79
2023/05/29 08:42:52;;;;;;;;;;;13.40;99.90;;;;;;4920023;29;19938;-79
2023/05/29 08:45:18;;;;;;;;;;;13.30;99.90;;;;;;4939065;29;19926;-79
2023/05/29 08:47:44;;;;;;;;;;;13.40;99.90;;;;;;4938055;29;20266;-79
2023/05/29 08:50:10;;;;;;;;;;;13.40;99.90;;;;;;4937849;29;19947;-79
2023/05/29 08:52:36;;;;;;;;;;;13.50;99.90;;;;;;4936837;29;19927;-78
2023/05/29 08:55:01;;;;;;;;;;;13.70;99.90;;;;;;4936050;29;19911;-79
2023/05/29 08:57:28;;;;;;;;;;;13.40;99.90;;;;;;4917116;29;19911;-78
2023/05/29 08:59:55;;;;;;;;;;;13.50;99.90;;;;;;4938629;29;19955;-81
2023/05/29 09:02:21;;;;;;;;;;;13.60;99.90;;;;;;4926334;29;19927;-78
2023/05/29 09:04:52;;;;;;;;;;;13.60;99.90;;;;;;4925411;29;19923;-79
2023/05/29 09:07:19;;;;;;;;;;;13.60;99.90;;;;;;4922266;29;19995;-78
2023/05/29 09:09:45;;;;;;;;;;;13.50;99.90;;;;;;4939403;29;19923;-78
2023/05/29 09:12:10;;;;;;;;;;;13.60;99.90;;;;;;4940708;29;19950;-77
2023/05/29 09:14:37;;;;;;;;;;;13.60;99.90;;;;;;4937770;29;19990;-77
2023/05/29 09:17:04;;;;;;;;;;;13.60;99.90;;;;;;4941901;29;19934;-79
2023/05/29 09:19:29;;;;;;;;;;;13.70;99.90;;;;;;4940692;29;19974;-78
2023/05/29 09:22:02;;;;;;;;;;;14.00;99.90;;;;;;4931869;29;19931;-77
2023/05/29 09:24:28;;;;;;;;;;;14.10;99.90;;;;;;4938690;29;19931;-77
2023/05/29 09:26:53;;;;;;;;;;;14.20;99.90;;;;;;4939413;29;19927;-78
2023/05/29 09:29:20;;;;;;;;;;;14.10;99.90;;;;;;4922614;29;19934;-77
2023/05/29 09:31:46;;;;;;;;;;;14.00;99.90;;;;;;4920643;29;19927;-78
2023/05/29 09:34:12;;;;;;;;;;;14.00;99.90;;;;;;4929975;29;19927;-78
2023/05/29 09:36:38;;;;;;;;;;;14.10;99.90;;;;;;4935161;29;19946;-78
2023/05/29 09:39:04;;;;;;;;;;;14.10;99.90;;;;;;4939022;29;19927;-77
2023/05/29 09:41:32;;;;;;;;;;;14.10;99.90;;;;;;4937791;29;19959;-78
2023/05/29 09:44:00;;;;;;;;;;;14.20;99.90;;;;;;4941074;29;19938;-78
2023/05/29 09:46:26;;;;;;;;;;;14.20;99.90;;;;;;4939685;29;19951;-78
2023/05/29 09:48:51;;;;;;;;;;;14.20;99.90;;;;;;4939599;29;19928;-78
2023/05/29 09:51:23;;;;;;;;;;;14.40;99.90;;;;;;4938208;29;19911;-78
2023/05/29 09:53:50;;;;;;;;;;;14.60;99.90;;;;;;4939447;29;19991;-78
2023/05/29 09:56:17;;;;;;;;;;;14.70;99.90;;;;;;4940232;29;20370;-77
2023/05/29 09:58:46;;;;;;;;;;;14.70;99.90;;;;;;4921009;29;19926;-78
2023/05/29 10:01:12;;;;;;;;;;;14.70;99.90;;;;;;4939713;29;19927;-79
2023/05/29 10:03:38;;;;;;;;;;;14.80;99.90;;;;;;4930824;29;20441;-79
2023/05/29 10:06:05;;;;;;;;;;;14.80;99.90;;;;;;4925341;29;19927;-78
2023/05/29 10:08:33;;;;;;;;;;;14.90;99.90;;;;;;4931279;29;19938;-78
2023/05/29 10:11:03;;;;;;;;;;;15.00;99.90;;;;;;4905486;29;19935;-78
2023/05/29 10:13:32;;;;;;;;;;;15.10;99.90;;;;;;4914562;29;20018;-80
2023/05/29 10:15:58;;;;;;;;;;;15.20;99.90;;;;;;4926343;29;19927;-80
2023/05/29 10:18:26;;;;;;;;;;;15.10;99.90;;;;;;4927314;29;19927;-78
2023/05/29 10:20:52;;;;;;;;;;;15.10;99.90;;;;;;4922252;29;20001;-78
2023/05/29 10:23:22;;;;;;;;;;;15.10;99.90;;;;;;4917572;29;19951;-79
2023/05/29 10:25:51;;;;;;;;;;;15.20;99.90;;;;;;4919416;29;19927;-78
2023/05/29 10:28:16;;;;;;;;;;;15.20;99.90;;;;;;4911773;29;19985;-78
2023/05/29 10:30:45;;;;;;;;;;;15.20;99.90;;;;;;4927576;29;19927;-79
2023/05/29 10:33:21;;;;;;;;;;;15.30;99.90;;;;;;4913846;29;19946;-79
2023/05/29 10:35:47;;;;;;;;;;;15.30;99.90;;;;;;4908961;29;19927;-78
2023/05/29 10:38:15;;;;;;;;;;;15.30;99.90;;;;;;4915576;29;19974;-77
2023/05/29 10:40:40;;;;;;;;;;;15.30;99.90;;;;;;4932228;29;19926;-77
2023/05/29 10:43:09;;;;;;;;;;;15.10;99.90;;;;;;4936343;29;19958;-78
2023/05/29 10:45:37;;;;;;;;;;;15.10;99.90;;;;;;4928476;29;20353;-79
2023/05/29 10:48:06;;;;;;;;;;;15.30;99.90;;;;;;4910752;29;19934;-78
2023/05/29 10:50:38;;;;;;;;;;;15.40;99.90;;;;;;4923161;29;19991;-79
2023/05/29 10:53:06;;;;;;;;;;;15.40;99.90;;;;;;4922371;29;19927;-77
2023/05/29 10:55:35;;;;;;;;;;;15.40;99.90;;;;;;4930935;29;19927;-79
2023/05/29 10:58:05;;;;;;;;;;;15.40;99.90;;;;;;4907913;29;19927;-79
2023/05/29 11:00:30;;;;;;;;;;;15.50;99.90;;;;;;4920949;29;19933;-78
2023/05/29 11:02:56;;;;;;;;;;;15.50;99.90;;;;;;4929596;29;19998;-79
2023/05/29 11:05:23;;;;;;;;;;;15.40;99.90;;;;;;4929039;29;19939;-78
2023/05/29 11:07:59;;;;;;;;;;;15.40;99.90;;;;;;4930666;29;19927;-79
2023/05/29 11:10:44;;;;;;;;;;;15.30;99.90;;;;;;4887048;29;20301;-78
2023/05/29 11:13:10;;;;;;;;;;;15.20;99.90;;;;;;4923880;29;19927;-79
2023/05/29 11:15:38;;;;;;;;;;;15.20;99.90;;;;;;4879118;29;19935;-79
2023/05/29 11:18:08;;;;;;;;;;;15.10;99.90;;;;;;4924265;29;20408;-79
2023/05/29 11:20:36;;;;;;;;;;;15.10;99.90;;;;;;4915452;29;19928;-78
2023/05/29 11:23:03;;;;;;;;;;;15.20;99.90;;;;;;4910842;29;19928;-78
2023/05/29 11:25:32;;;;;;;;;;;15.10;99.90;;;;;;4922604;29;20275;-78
2023/05/29 11:27:58;;;;;;;;;;;15.10;99.90;;;;;;4902536;29;19928;-78
2023/05/29 11:30:23;;;;;;;;;;;15.00;99.90;;;;;;4908286;29;19927;-79
2023/05/29 11:32:52;;;;;;;;;;;15.30;99.90;;;;;;4926553;29;19934;-79
2023/05/29 11:35:19;;;;;;;;;;;15.50;99.90;;;;;;4925811;29;19927;-78
2023/05/29 11:37:47;;;;;;;;;;;15.60;99.90;;;;;;4906466;29;19959;-79
2023/05/29 11:40:13;;;;;;;;;;;15.50;99.90;;;;;;4909352;29;19932;-79
2023/05/29 11:42:45;;;;;;;;;;;15.60;99.90;;;;;;4923872;29;19927;-79
2023/05/29 11:45:10;;;;;;;;;;;15.60;99.90;;;;;;4915406;29;19927;-78
2023/05/29 11:47:51;;;;;;;;;;;15.60;99.90;;;;;;4913697;29;19931;-78
2023/05/29 11:50:27;;;;;;;;;;;15.60;99.90;;;;;;4922793;29;19927;-78
2023/05/29 11:52:53;;;;;;;;;;;15.50;99.90;;;;;;4923653;29;19959;-78
2023/05/29 11:55:20;;;;;;;;;;;15.70;99.90;;;;;;4904023;29;19966;-80
2023/05/29 11:57:55;;;;;;;;;;;15.80;99.90;;;;;;4913570;29;20384;-79
2023/05/29 12:00:22;;;;;;;;;;;15.80;99.90;;;;;;4921230;29;19951;-78
2023/05/29 12:02:47;;;;;;;;;;;15.70;99.90;;;;;;4925995;29;19941;-78
2023/05/29 12:05:15;;;;;;;;;;;15.70;99.90;;;;;;4918845;29;19990;-79
2023/05/29 12:07:48;;;;;;;;;;;15.80;99.90;;;;;;4914649;29;19966;-77
2023/05/29 12:10:16;;;;;;;;;;;15.80;99.90;;;;;;4923616;29;19923;-78
2023/05/29 12:12:42;;;;;;;;;;;16.00;99.90;;;;;;4921344;29;19927;-79
2023/05/29 12:15:08;;;;;;;;;;;16.30;99.90;;;;;;4932404;29;19930;-79
2023/05/29 12:17:35;;;;;;;;;;;16.30;99.90;;;;;;4939305;29;20289;-78
2023/05/29 12:20:01;;;;;;;;;;;16.10;99.90;;;;;;4895647;29;20017;-78
2023/05/29 12:22:36;;;;;;;;;;;16.20;99.90;;;;;;4898207;29;19982;-78
2023/05/29 12:25:07;;;;;;;;;;;16.20;99.90;;;;;;4899758;29;19935;-79
2023/05/29 12:27:37;;;;;;;;;;;16.10;99.90;;;;;;4927197;29;20420;-78
2023/05/29 12:30:03;;;;;;;;;;;15.90;99.90;;;;;;4917702;29;19983;-78
2023/05/29 12:32:38;;;;;;;;;;;15.90;99.90;;;;;;4916294;29;19935;-79
2023/05/29 12:35:10;;;;;;;;;;;16.10;99.90;;;;;;4924014;29;19932;-78
2023/05/29 12:37:36;;;;;;;;;;;16.10;99.90;;;;;;4929832;29;20389;-79
2023/05/29 12:40:15;;;;;;;;;;;16.00;99.90;;;;;;4914383;29;19985;-78
2023/05/29 12:42:40;;;;;;;;;;;16.10;99.90;;;;;;4932020;29;19931;-79
2023/05/29 12:45:07;;;;;;;;;;;16.20;99.90;;;;;;4931528;29;19927;-77
2023/05/29 12:47:33;;;;;;;;;;;16.20;99.90;;;;;;4930477;29;20403;-79
2023/05/29 12:49:59;;;;;;;;;;;16.20;99.90;;;;;;4927907;29;19927;-79
2023/05/29 12:52:24;;;;;;;;;;;16.30;99.90;;;;;;4913805;29;19955;-80
2023/05/29 12:54:50;;;;;;;;;;;16.30;99.60;;;;;;4908348;29;19934;-78
2023/05/29 12:57:16;;;;;;;;;;;16.30;99.00;;;;;;4924994;29;19927;-79
2023/05/29 12:59:41;;;;;;;;;;;16.30;99.70;;;;;;4919620;29;19934;-77
2023/05/29 13:02:07;;;;;;;;;;;16.20;99.90;;;;;;4908689;29;19993;-78
2023/05/29 13:04:33;;;;;;;;;;;16.30;99.40;;;;;;4907371;29;19935;-79
2023/05/29 13:06:59;;;;;;;;;;;16.30;99.70;;;;;;4898863;29;19956;-78
2023/05/29 13:09:25;;;;;;;;;;;16.40;99.90;;;;;;4903895;29;19967;-77
2023/05/29 13:11:50;;;;;;;;;;;16.50;99.40;;;;;;4907600;29;19927;-78
2023/05/29 13:14:16;;;;;;;;;;;16.80;99.00;;;;;;4927061;29;19938;-79
2023/05/29 13:16:41;;;;;;;;;;;16.70;98.70;;;;;;4915797;29;19927;-77
2023/05/29 13:19:07;;;;;;;;;;;16.60;97.50;;;;;;4899518;29;19926;-78
2023/05/29 13:21:32;;;;;;;;;;;16.50;98.40;;;;;;4931520;29;19933;-79
2023/05/29 13:23:58;;;;;;;;;;;16.50;99.00;;;;;;4929204;29;19927;-79
2023/05/29 13:26:25;;;;;;;;;;;16.30;99.20;;;;;;4930835;29;20386;-78
2023/05/29 13:28:51;;;;;;;;;;;16.30;99.30;;;;;;4912368;29;19934;-80
2023/05/29 13:31:17;;;;;;;;;;;16.40;99.00;;;;;;4928390;29;19974;-79
2023/05/29 13:33:43;;;;;;;;;;;16.60;98.80;;;;;;4907498;29;19927;-79
2023/05/29 13:36:08;;;;;;;;;;;16.70;98.60;;;;;;4918730;29;19927;-79
2023/05/29 13:38:34;;;;;;;;;;;16.80;98.90;;;;;;4925288;29;19927;-79
2023/05/29 13:40:59;;;;;;;;;;;16.80;98.80;;;;;;4915621;29;20445;-81
2023/05/29 13:43:25;;;;;;;;;;;16.70;98.70;;;;;;4911111;29;19979;-80
2023/05/29 13:45:50;;;;;;;;;;;16.70;98.40;;;;;;4924741;29;20011;-80
2023/05/29 13:48:16;;;;;;;;;;;16.60;99.40;;;;;;4924322;29;19931;-79
2023/05/29 13:50:41;;;;;;;;;;;16.60;97.00;;;;;;4925010;29;19926;-79
2023/05/29 13:53:07;;;;;;;;;;;16.70;98.30;;;;;;4927908;29;20401;-80
2023/05/29 13:55:33;;;;;;;;;;;16.90;97.60;;;;;;4927515;29;19934;-78
2023/05/29 13:57:58;;;;;;;;;;;17.00;97.40;;;;;;4904755;29;20354;-79
2023/05/29 14:00:24;;;;;;;;;;;17.00;97.50;;;;;;4911469;29;19985;-78
2023/05/29 14:02:49;;;;;;;;;;;17.00;95.80;;;;;;4929519;29;19927;-80
2023/05/29 14:05:15;;;;;;;;;;;17.00;95.90;;;;;;4925080;29;19927;-79
2023/05/29 14:07:40;;;;;;;;;;;17.00;96.60;;;;;;4925796;29;19927;-79
2023/05/29 14:10:06;;;;;;;;;;;17.10;96.90;;;;;;4906084;29;19931;-79
2023/05/29 14:12:32;;;;;;;;;;;17.20;96.00;;;;;;4925664;29;19930;-77
2023/05/29 14:14:57;;;;;;;;;;;17.50;95.30;;;;;;4925732;29;19967;-79
2023/05/29 14:17:23;;;;;;;;;;;17.40;94.20;;;;;;4908821;29;19927;-78